Time;durP1;ratioP1;P1;durP2;ratioP2;P2;SDS_P1;SDS_P2;PMS_P1;PMS_P2;Temp;Humidity;BMP_temperature;BMP_pressure;BME280_temperature;BME280_humidity;BME280_pressure;Samples;Min_cycle;Max_cycle;Signal;HPM_P1;HPM_P2
2022/06/22 00:01:04;;;;;;;1.47;0.90;;;16.90;93.50;;;;;;4938314;28;20574;-78
2022/06/22 00:03:32;;;;;;;1.50;1.00;;;16.80;93.20;;;;;;4961088;28;20466;-78
2022/06/22 00:06:02;;;;;;;1.50;0.90;;;16.80;93.80;;;;;;4950760;28;20498;-78
2022/06/22 00:08:35;;;;;;;1.50;0.90;;;16.80;93.10;;;;;;4952549;29;20486;-77
2022/06/22 00:11:07;;;;;;;1.47;1.00;;;16.80;93.30;;;;;;4944791;28;20966;-78
2022/06/22 00:13:35;;;;;;;1.50;1.00;;;16.70;93.00;;;;;;4966492;28;20470;-77
2022/06/22 00:16:04;;;;;;;1.50;1.00;;;16.70;93.30;;;;;;4946342;28;20482;-78
2022/06/22 00:18:34;;;;;;;1.47;1.00;;;16.70;94.20;;;;;;4966506;28;20473;-79
2022/06/22 00:21:06;;;;;;;1.43;1.00;;;16.60;94.60;;;;;;4944642;28;20490;-78
2022/06/22 00:23:40;;;;;;;1.50;1.00;;;16.60;94.70;;;;;;4967443;28;20801;-78
2022/06/22 00:26:20;;;;;;;1.50;0.90;;;16.50;94.30;;;;;;4952906;29;20490;-77
2022/06/22 00:29:00;;;;;;;1.50;1.00;;;16.50;94.00;;;;;;4950248;29;20486;-80
2022/06/22 00:31:37;;;;;;;1.47;1.00;;;16.40;93.60;;;;;;4952287;28;20509;-77
2022/06/22 00:34:15;;;;;;;1.43;0.93;;;16.40;93.50;;;;;;4955317;29;20466;-75
2022/06/22 00:36:48;;;;;;;1.50;1.00;;;16.30;94.00;;;;;;4954348;29;20489;-79
2022/06/22 00:39:25;;;;;;;1.47;0.93;;;16.30;93.70;;;;;;4955900;29;20474;-76
2022/06/22 00:41:59;;;;;;;1.50;1.00;;;16.20;93.70;;;;;;4944049;28;20560;-76
2022/06/22 00:44:29;;;;;;;1.43;1.00;;;16.20;93.10;;;;;;4960385;28;20475;-78
2022/06/22 00:47:01;;;;;;;1.47;0.90;;;16.20;93.30;;;;;;4954633;29;20514;-80
2022/06/22 00:49:30;;;;;;;1.47;0.97;;;16.10;93.80;;;;;;4949365;28;20492;-78
2022/06/22 00:52:02;;;;;;;1.50;1.00;;;16.10;94.40;;;;;;4948852;29;20474;-79
2022/06/22 00:54:32;;;;;;;1.50;1.00;;;16.10;94.50;;;;;;4954592;29;20459;-79
2022/06/22 00:57:07;;;;;;;1.50;1.10;;;16.00;94.80;;;;;;4950177;28;20999;-77
2022/06/22 00:59:39;;;;;;;1.50;1.00;;;16.00;94.60;;;;;;4956807;29;20546;-78
2022/06/22 01:02:15;;;;;;;1.50;0.90;;;15.90;95.20;;;;;;4953725;29;20561;-78
2022/06/22 01:04:48;;;;;;;1.43;0.90;;;15.90;94.50;;;;;;4956695;29;20550;-80
2022/06/22 01:07:23;;;;;;;1.50;1.00;;;15.90;94.60;;;;;;4959045;28;20859;-79
2022/06/22 01:09:56;;;;;;;1.47;1.00;;;15.90;94.90;;;;;;4955957;28;21076;-79
2022/06/22 01:12:30;;;;;;;1.43;0.93;;;15.80;95.10;;;;;;4948933;28;20471;-81
2022/06/22 01:15:04;;;;;;;1.50;1.00;;;15.80;94.70;;;;;;4955148;29;20481;-78
2022/06/22 01:17:46;;;;;;;1.50;0.93;;;15.80;94.90;;;;;;4956576;28;20469;-78
2022/06/22 01:20:21;;;;;;;1.47;0.90;;;15.70;94.50;;;;;;4955822;29;20522;-79
2022/06/22 01:23:16;;;;;;;1.50;1.00;;;15.70;95.40;;;;;;4950508;29;20550;-77
2022/06/22 01:25:53;;;;;;;1.50;1.07;;;15.60;95.20;;;;;;4952853;28;20534;-78
2022/06/22 01:28:23;;;;;;;1.47;0.90;;;15.60;95.50;;;;;;4945818;29;20539;-79
2022/06/22 01:30:56;;;;;;;1.40;0.90;;;15.60;95.40;;;;;;4954733;29;20562;-79
2022/06/22 01:33:32;;;;;;;1.50;0.90;;;15.60;95.30;;;;;;4953978;29;20849;-78
2022/06/22 01:36:02;;;;;;;1.50;1.00;;;15.60;94.90;;;;;;4953531;29;20487;-77
2022/06/22 01:38:31;;;;;;;1.50;1.00;;;15.50;95.50;;;;;;4949591;29;20467;-78
2022/06/22 01:41:05;;;;;;;1.50;1.00;;;15.50;96.20;;;;;;4937608;28;20500;-78
2022/06/22 01:43:38;;;;;;;1.50;1.10;;;15.40;96.40;;;;;;4962469;28;20527;-78
2022/06/22 01:46:13;;;;;;;1.43;1.00;;;15.40;95.80;;;;;;4945490;28;20486;-79
2022/06/22 01:48:44;;;;;;;1.50;1.00;;;15.40;96.10;;;;;;4954463;28;20521;-78
2022/06/22 01:51:26;;;;;;;1.47;1.00;;;15.40;96.60;;;;;;4949495;29;20956;-78
2022/06/22 01:53:57;;;;;;;1.50;0.90;;;15.40;96.20;;;;;;4953006;28;20499;-78
2022/06/22 01:56:30;;;;;;;1.50;1.00;;;15.30;96.30;;;;;;4936491;28;20892;-78
2022/06/22 01:59:07;;;;;;;1.50;1.00;;;15.30;96.80;;;;;;4957551;28;20461;-78
2022/06/22 02:01:38;;;;;;;1.50;1.00;;;15.30;96.10;;;;;;4941614;28;20906;-78
2022/06/22 02:04:16;;;;;;;1.47;0.90;;;15.30;96.10;;;;;;4961770;28;20493;-79
2022/06/22 02:09:53;;;;;;;1.47;0.93;;;15.20;96.60;;;;;;4953089;29;20870;-79
2022/06/22 02:12:27;;;;;;;1.47;0.90;;;15.10;96.60;;;;;;4954060;28;20490;-77
2022/06/22 02:15:05;;;;;;;1.50;1.00;;;15.10;96.90;;;;;;4953197;28;20530;-76
2022/06/22 02:17:36;;;;;;;1.47;1.00;;;15.10;97.50;;;;;;4949347;28;20553;-77
2022/06/22 02:20:35;;;;;;;1.50;0.93;;;15.10;97.40;;;;;;4951930;29;20895;-77
2022/06/22 02:23:20;;;;;;;1.50;0.97;;;15.00;97.30;;;;;;4941511;28;20466;-77
2022/06/22 02:25:57;;;;;;;1.50;1.00;;;15.00;97.30;;;;;;4952273;29;20510;-77
2022/06/22 02:28:24;;;;;;;1.50;1.00;;;15.00;97.40;;;;;;4951876;29;20462;-80
2022/06/22 02:30:53;;;;;;;1.50;0.90;;;14.90;98.00;;;;;;4945376;28;20478;-77
2022/06/22 02:33:20;;;;;;;1.50;1.00;;;14.90;98.20;;;;;;4939593;29;20534;-77
2022/06/22 02:35:47;;;;;;;1.50;0.93;;;14.90;98.20;;;;;;4928179;28;20935;-79
2022/06/22 02:38:16;;;;;;;1.50;0.90;;;14.90;98.20;;;;;;4970957;28;20470;-79
2022/06/22 02:46:29;;;;;;;1.50;1.00;;;14.80;98.20;;;;;;4947542;28;20887;-79
2022/06/22 02:49:00;;;;;;;1.47;0.90;;;14.80;98.20;;;;;;4960755;28;20544;-80
2022/06/22 02:51:30;;;;;;;1.50;1.00;;;14.80;98.20;;;;;;4955465;29;20525;-80
2022/06/22 02:53:59;;;;;;;1.50;1.00;;;14.80;98.20;;;;;;4956041;28;20472;-78
2022/06/22 02:56:38;;;;;;;1.50;0.90;;;14.70;98.20;;;;;;4950936;28;20490;-78
2022/06/22 02:59:07;;;;;;;1.50;1.00;;;14.70;98.20;;;;;;4958629;28;20490;-79
2022/06/22 03:01:38;;;;;;;1.47;1.00;;;14.70;98.20;;;;;;4949429;28;20485;-79
2022/06/22 03:04:10;;;;;;;1.50;1.00;;;14.70;98.20;;;;;;4965344;28;20557;-78
2022/06/22 03:06:43;;;;;;;1.50;1.00;;;14.70;98.20;;;;;;4944589;28;21081;-79
2022/06/22 03:09:10;;;;;;;1.50;1.00;;;14.60;98.20;;;;;;4940402;29;20542;-80
2022/06/22 03:11:43;;;;;;;1.50;1.00;;;14.60;98.20;;;;;;4941674;28;20521;-77
2022/06/22 03:14:19;;;;;;;1.47;0.93;;;14.60;98.20;;;;;;4963365;28;21112;-77
2022/06/22 03:16:51;;;;;;;1.50;1.00;;;14.50;98.20;;;;;;4951760;29;20505;-78
2022/06/22 03:19:27;;;;;;;2.23;2.03;;;14.50;98.20;;;;;;4956034;29;21009;-79
2022/06/22 03:21:58;;;;;;;1.50;1.00;;;14.50;98.20;;;;;;4951812;29;20474;-81
2022/06/22 03:24:38;;;;;;;1.47;1.00;;;14.50;98.20;;;;;;4953919;29;21162;-79
2022/06/22 03:27:13;;;;;;;1.50;1.00;;;14.50;98.20;;;;;;4949657;28;20524;-79
2022/06/22 03:29:45;;;;;;;1.50;1.00;;;14.50;98.20;;;;;;4956145;28;20470;-78
2022/06/22 03:32:18;;;;;;;1.50;1.10;;;14.50;98.20;;;;;;4949772;29;20498;-79
2022/06/22 03:34:50;;;;;;;1.50;0.90;;;14.50;98.20;;;;;;4955420;29;20999;-78
2022/06/22 03:37:23;;;;;;;1.47;1.00;;;14.50;98.20;;;;;;4956218;28;20595;-79
2022/06/22 03:39:56;;;;;;;1.50;1.00;;;14.50;98.20;;;;;;4957835;28;20939;-79
2022/06/22 03:42:27;;;;;;;1.47;1.00;;;14.50;98.20;;;;;;4952530;28;20895;-78
2022/06/22 03:44:57;;;;;;;1.50;1.00;;;14.50;98.20;;;;;;4954342;29;20467;-79
2022/06/22 03:47:30;;;;;;;1.47;1.00;;;14.50;98.20;;;;;;4950731;28;20538;-77
2022/06/22 03:50:01;;;;;;;1.47;0.90;;;14.60;98.20;;;;;;4954399;29;20470;-78
2022/06/22 03:52:33;;;;;;;1.47;1.00;;;14.60;98.20;;;;;;4957735;28;20730;-78
2022/06/22 03:55:04;;;;;;;1.50;1.00;;;14.60;98.20;;;;;;4949443;28;20467;-81
2022/06/22 03:57:36;;;;;;;1.47;1.00;;;14.70;98.20;;;;;;4950243;28;20501;-81
2022/06/22 04:00:06;;;;;;;1.47;1.00;;;14.70;98.20;;;;;;4955539;29;20919;-81
2022/06/22 04:02:35;;;;;;;1.50;1.00;;;14.70;98.20;;;;;;4951004;29;20554;-78
2022/06/22 04:05:03;;;;;;;1.47;0.97;;;14.80;98.20;;;;;;4957765;29;20558;-80
2022/06/22 04:07:35;;;;;;;1.50;1.00;;;14.80;98.20;;;;;;4953897;29;20467;-78
2022/06/22 04:10:03;;;;;;;1.50;0.90;;;14.90;98.20;;;;;;4956895;29;20467;-80
2022/06/22 04:12:34;;;;;;;1.47;1.00;;;14.90;98.20;;;;;;4955737;29;20629;-79
2022/06/22 04:15:11;;;;;;;1.47;1.00;;;15.00;98.20;;;;;;4955398;29;20463;-79
2022/06/22 04:17:48;;;;;;;1.50;1.10;;;15.10;98.20;;;;;;4954094;29;20466;-77
2022/06/22 04:20:19;;;;;;;1.50;1.00;;;15.10;98.20;;;;;;4954429;29;20541;-78
2022/06/22 04:22:54;;;;;;;1.50;1.00;;;15.20;98.20;;;;;;4949650;28;20548;-78
2022/06/22 04:25:27;;;;;;;1.50;1.00;;;15.30;98.20;;;;;;4930312;29;20589;-77
2022/06/22 04:27:56;;;;;;;1.43;1.00;;;15.40;98.20;;;;;;4935896;29;20503;-80
2022/06/22 04:30:26;;;;;;;1.50;1.00;;;15.40;98.20;;;;;;4936412;29;20496;-80
2022/06/22 04:33:02;;;;;;;1.50;1.00;;;15.50;98.20;;;;;;4937676;29;20464;-80
2022/06/22 04:35:36;;;;;;;1.47;0.90;;;15.50;98.20;;;;;;4936262;29;20566;-76
2022/06/22 04:38:12;;;;;;;1.50;0.90;;;15.60;98.20;;;;;;4938297;29;20464;-77
2022/06/22 04:40:51;;;;;;;1.47;1.00;;;15.70;98.20;;;;;;4935816;29;20574;-78
2022/06/22 04:43:18;;;;;;;1.50;1.00;;;15.80;98.20;;;;;;4910421;29;20650;-77
2022/06/22 04:45:47;;;;;;;1.50;1.00;;;15.80;98.20;;;;;;4926989;28;20578;-78
2022/06/22 04:48:21;;;;;;;1.50;0.90;;;15.90;98.20;;;;;;4947813;28;20565;-79
2022/06/22 04:50:51;;;;;;;1.50;0.90;;;16.00;98.20;;;;;;4921909;28;21359;-78
2022/06/22 04:53:23;;;;;;;1.50;0.90;;;16.20;98.20;;;;;;4960099;28;20513;-77
2022/06/22 04:55:52;;;;;;;1.50;1.00;;;16.40;98.20;;;;;;4945089;28;20494;-77
2022/06/22 04:58:34;;;;;;;1.50;1.00;;;16.70;98.10;;;;;;4947637;28;20531;-78
2022/06/22 05:01:04;;;;;;;1.50;1.00;;;16.90;97.40;;;;;;4928490;29;20491;-80
2022/06/22 05:03:34;;;;;;;1.50;0.90;;;17.20;96.40;;;;;;4931742;29;20464;-79
2022/06/22 05:06:06;;;;;;;1.40;0.90;;;17.50;95.50;;;;;;4935604;29;20484;-79
2022/06/22 05:08:38;;;;;;;1.50;0.90;;;17.90;94.70;;;;;;4932929;29;20506;-79
2022/06/22 05:11:15;;;;;;;1.50;0.90;;;18.10;93.10;;;;;;4929176;28;20489;-79
2022/06/22 05:13:46;;;;;;;1.43;0.90;;;18.30;92.10;;;;;;4941318;28;21082;-80
2022/06/22 05:16:17;;;;;;;1.47;0.93;;;18.40;91.30;;;;;;4929078;29;20857;-79
2022/06/22 05:18:47;;;;;;;1.50;1.00;;;18.40;91.00;;;;;;4929704;29;20474;-81
2022/06/22 05:21:19;;;;;;;1.47;1.00;;;18.30;91.30;;;;;;4933300;29;20582;-81
2022/06/22 05:23:50;;;;;;;1.47;0.90;;;18.20;91.60;;;;;;4937161;29;20470;-81
2022/06/22 05:26:19;;;;;;;1.47;0.90;;;18.30;91.90;;;;;;4933790;28;20930;-78
2022/06/22 05:28:49;;;;;;;1.50;0.90;;;18.50;91.40;;;;;;4967089;28;20529;-78
2022/06/22 05:31:22;;;;;;;1.50;1.10;;;18.80;89.90;;;;;;4951317;28;20478;-79
2022/06/22 05:33:53;;;;;;;1.47;0.90;;;18.90;88.40;;;;;;4957923;28;20540;-80
2022/06/22 05:36:27;;;;;;;1.40;0.90;;;18.80;88.50;;;;;;4945437;28;20994;-80
2022/06/22 05:38:57;;;;;;;1.40;0.90;;;18.80;89.00;;;;;;4969364;28;20490;-81
2022/06/22 05:41:31;;;;;;;1.47;0.90;;;18.90;90.20;;;;;;4946370;28;20573;-80
2022/06/22 05:44:02;;;;;;;1.50;0.90;;;19.10;90.40;;;;;;4967271;28;20470;-80
2022/06/22 05:46:29;;;;;;;1.50;0.90;;;19.30;89.50;;;;;;4955561;29;20891;-80
2022/06/22 05:48:58;;;;;;;1.47;0.90;;;19.30;88.70;;;;;;4953964;28;20467;-79
2022/06/22 05:51:36;;;;;;;1.50;0.90;;;19.40;88.80;;;;;;4946348;28;20493;-79
2022/06/22 05:54:10;;;;;;;1.47;0.90;;;19.60;89.00;;;;;;4958188;28;20467;-80
2022/06/22 05:56:41;;;;;;;1.47;0.90;;;19.70;87.30;;;;;;4952047;28;20518;-79
2022/06/22 05:59:15;;;;;;;1.50;0.90;;;19.60;87.00;;;;;;4954795;28;20466;-79
2022/06/22 06:01:49;;;;;;;1.47;0.90;;;19.60;87.50;;;;;;4953425;28;20532;-79
2022/06/22 06:04:27;;;;;;;1.47;0.90;;;19.70;87.40;;;;;;4960872;28;20482;-80
2022/06/22 06:06:58;;;;;;;1.47;0.90;;;19.90;86.60;;;;;;4957165;28;20909;-80
2022/06/22 06:09:27;;;;;;;1.50;0.97;;;20.10;86.90;;;;;;4954994;28;20481;-80
2022/06/22 06:11:59;;;;;;;1.50;0.90;;;20.50;85.50;;;;;;4949390;28;20534;-81
2022/06/22 06:14:30;;;;;;;1.50;0.90;;;20.80;85.00;;;;;;4952454;28;20553;-80
2022/06/22 06:17:04;;;;;;;1.47;0.90;;;21.10;83.90;;;;;;4948879;28;20584;-80
2022/06/22 06:19:38;;;;;;;1.50;0.90;;;21.30;83.50;;;;;;4952234;28;20467;-80
2022/06/22 06:22:07;;;;;;;1.47;0.90;;;21.30;84.20;;;;;;4946440;29;20562;-81
2022/06/22 06:26:54;;;;;;;1.43;0.90;;;21.40;83.20;;;;;;4958270;29;20474;-80
2022/06/22 06:27:38;;;;;;;1.47;0.90;;;21.50;81.50;;;;;;4953054;28;20487;-81
2022/06/22 06:30:13;;;;;;;1.50;0.90;;;21.50;81.40;;;;;;4951600;28;21033;-81
2022/06/22 06:32:46;;;;;;;1.50;0.90;;;21.50;81.50;;;;;;4931595;28;20490;-80
2022/06/22 06:35:20;;;;;;;1.47;0.90;;;21.60;82.00;;;;;;4930956;29;20960;-80
2022/06/22 06:37:56;;;;;;;1.47;0.90;;;21.80;81.40;;;;;;4937667;28;20485;-80
2022/06/22 06:40:32;;;;;;;1.50;0.90;;;22.00;80.50;;;;;;4931475;29;20501;-80
2022/06/22 06:43:24;;;;;;;1.43;0.90;;;22.20;81.10;;;;;;4931817;29;21023;-80
2022/06/22 06:45:52;;;;;;;1.47;0.90;;;22.40;80.10;;;;;;4924365;29;20479;-80
2022/06/22 06:48:24;;;;;;;1.50;0.90;;;22.60;80.40;;;;;;4926577;29;20468;-80
2022/06/22 06:50:56;;;;;;;1.47;0.90;;;23.00;79.00;;;;;;4929279;29;20468;-81
2022/06/22 06:53:41;;;;;;;1.50;0.90;;;23.30;79.10;;;;;;4933692;29;20562;-80
2022/06/22 06:56:16;;;;;;;1.40;0.90;;;23.50;77.10;;;;;;4931696;28;20493;-81
2022/06/22 06:58:46;;;;;;;1.43;0.90;;;23.60;76.70;;;;;;4961582;28;20534;-81
2022/06/22 07:01:18;;;;;;;1.47;0.90;;;23.60;76.60;;;;;;4950855;28;20889;-79
2022/06/22 07:03:45;;;;;;;1.47;0.90;;;23.70;77.30;;;;;;4952064;28;20562;-79
2022/06/22 07:06:14;;;;;;;1.80;1.30;;;23.80;77.70;;;;;;4947274;28;20497;-79
2022/06/22 07:08:47;;;;;;;1.43;0.80;;;23.90;77.30;;;;;;4959154;28;21337;-79
2022/06/22 07:11:19;;;;;;;1.50;0.90;;;24.10;76.70;;;;;;4946969;28;20490;-81
2022/06/22 07:13:49;;;;;;;1.47;0.90;;;24.30;76.20;;;;;;4963252;28;20464;-79
2022/06/22 07:16:20;;;;;;;1.47;0.90;;;24.50;75.50;;;;;;4935375;28;20514;-80
2022/06/22 07:18:50;;;;;;;1.50;0.90;;;24.80;74.80;;;;;;4935696;28;20851;-79
2022/06/22 07:21:33;;;;;;;1.50;0.90;;;25.10;74.30;;;;;;4936105;29;20488;-79
2022/06/22 07:24:04;;;;;;;2.23;1.57;;;25.40;73.40;;;;;;4935027;29;20474;-79
2022/06/22 07:26:43;;;;;;;1.50;0.90;;;25.70;71.60;;;;;;4933041;29;20503;-80
2022/06/22 07:29:17;;;;;;;1.50;0.80;;;25.90;71.30;;;;;;4941169;29;20475;-80
2022/06/22 07:31:50;;;;;;;1.50;0.90;;;26.00;70.40;;;;;;4930979;28;20927;-78
2022/06/22 07:34:20;;;;;;;1.50;0.90;;;26.20;69.90;;;;;;4944661;29;21306;-80
2022/06/22 07:36:54;;;;;;;1.50;0.90;;;26.30;70.20;;;;;;4933597;28;20500;-78
2022/06/22 07:39:25;;;;;;;2.33;1.67;;;26.40;70.80;;;;;;4961416;28;20993;-79
2022/06/22 07:41:52;;;;;;;1.47;0.80;;;26.60;70.30;;;;;;4952518;28;20526;-80
2022/06/22 07:44:22;;;;;;;1.40;0.90;;;26.90;69.00;;;;;;4953283;29;20470;-80
2022/06/22 07:46:53;;;;;;;1.50;0.80;;;27.20;68.30;;;;;;4959437;28;20572;-77
2022/06/22 07:49:24;;;;;;;1.50;0.80;;;27.40;68.60;;;;;;4955213;28;21188;-78
2022/06/22 07:51:56;;;;;;;1.43;0.90;;;27.60;67.40;;;;;;4948333;29;20549;-78
2022/06/22 07:54:29;;;;;;;1.47;0.90;;;27.80;68.10;;;;;;4951732;28;20920;-77
2022/06/22 07:57:06;;;;;;;1.50;0.90;;;27.90;67.00;;;;;;4947545;28;20486;-79
2022/06/22 07:59:38;;;;;;;1.50;0.80;;;28.00;67.30;;;;;;4957724;28;20972;-78
2022/06/22 08:02:13;;;;;;;1.47;0.80;;;28.20;66.00;;;;;;4952782;28;20493;-78
2022/06/22 08:04:46;;;;;;;1.47;0.83;;;28.30;65.20;;;;;;4957325;28;20561;-78
2022/06/22 08:07:18;;;;;;;1.43;0.90;;;28.40;64.40;;;;;;4952039;28;20473;-78
2022/06/22 08:09:51;;;;;;;1.47;0.80;;;28.40;65.20;;;;;;4961453;28;20701;-79
2022/06/22 08:12:23;;;;;;;1.43;0.80;;;28.50;64.50;;;;;;4953086;28;20489;-79
2022/06/22 08:14:53;;;;;;;1.47;0.80;;;28.40;64.30;;;;;;4957817;28;20979;-78
2022/06/22 08:17:25;;;;;;;1.40;0.80;;;28.20;64.60;;;;;;4956600;28;20494;-79
2022/06/22 08:19:52;;;;;;;1.50;0.80;;;28.20;65.00;;;;;;4960314;28;20973;-77
2022/06/22 08:22:21;;;;;;;1.47;0.80;;;28.40;65.70;;;;;;4949527;28;20580;-75
2022/06/22 08:24:55;;;;;;;1.43;0.80;;;28.60;65.30;;;;;;4952605;28;20470;-76
2022/06/22 08:27:24;;;;;;;1.47;0.90;;;28.80;65.40;;;;;;4949687;28;20508;-75
2022/06/22 08:29:52;;;;;;;1.47;0.80;;;28.90;64.10;;;;;;4950620;28;20476;-74
2022/06/22 08:32:27;;;;;;;1.40;0.80;;;29.00;65.10;;;;;;4937021;28;20497;-77
2022/06/22 08:34:55;;;;;;;1.47;0.80;;;29.00;65.10;;;;;;4936629;29;20557;-76
2022/06/22 08:37:33;;;;;;;1.47;0.80;;;29.20;64.90;;;;;;4930842;29;20504;-78
2022/06/22 08:40:07;;;;;;;1.50;0.80;;;29.20;64.20;;;;;;4933979;28;20585;-78
2022/06/22 08:42:48;;;;;;;1.43;0.80;;;29.30;65.10;;;;;;4949444;28;21034;-78
2022/06/22 08:45:34;;;;;;;1.47;0.80;;;29.50;64.30;;;;;;4951513;28;20902;-79
2022/06/22 08:48:45;;;;;;;1.50;1.00;;;29.60;64.20;;;;;;4954137;28;20500;-77
2022/06/22 08:51:39;;;;;;;1.47;0.80;;;29.50;64.20;;;;;;4938098;28;20489;-79
2022/06/22 08:54:26;;;;;;;1.47;0.80;;;29.80;65.00;;;;;;4930031;29;20467;-78
2022/06/22 08:57:02;;;;;;;1.47;0.80;;;30.00;63.20;;;;;;4938614;28;20537;-79
2022/06/22 08:59:57;;;;;;;1.40;0.80;;;30.00;62.90;;;;;;4960174;28;20469;-79
2022/06/22 09:02:48;;;;;;;1.40;0.80;;;29.90;63.00;;;;;;4947972;28;20478;-79
2022/06/22 09:05:38;;;;;;;1.47;0.80;;;29.80;64.10;;;;;;4952804;28;20492;-79
2022/06/22 09:08:33;;;;;;;1.40;0.80;;;30.00;64.20;;;;;;4934781;28;20478;-79
2022/06/22 09:11:11;;;;;;;1.50;0.80;;;29.70;63.30;;;;;;4942824;28;20518;-80
2022/06/22 09:14:00;;;;;;;1.47;0.80;;;29.80;62.30;;;;;;4964064;28;20556;-80
2022/06/22 09:16:49;;;;;;;1.60;1.10;;;30.10;63.70;;;;;;4942735;28;20518;-79
2022/06/22 09:19:34;;;;;;;1.47;0.80;;;30.30;62.30;;;;;;4948375;28;20646;-79
2022/06/22 09:22:13;;;;;;;1.50;1.13;;;30.50;63.00;;;;;;4942702;29;20466;-79
2022/06/22 09:24:45;;;;;;;1.47;0.80;;;30.70;63.10;;;;;;4950038;29;20478;-79
2022/06/22 09:27:17;;;;;;;1.47;0.80;;;31.00;62.90;;;;;;4950401;28;20531;-79
2022/06/22 09:30:02;;;;;;;1.50;0.80;;;31.20;60.60;;;;;;4955357;28;20226;-77
2022/06/22 09:32:52;;;;;;;1.47;0.80;;;31.40;60.20;;;;;;4938052;28;20245;-80
2022/06/22 09:36:01;;;;;;;1.47;0.80;;;31.10;60.80;;;;;;4932979;29;20204;-80
2022/06/22 09:38:54;;;;;;;1.43;0.80;;;31.10;61.00;;;;;;4917922;29;20229;-79
2022/06/22 09:44:54;;;;;;;1.43;0.80;;;31.50;60.60;;;;;;4922038;28;20262;-80
2022/06/22 09:47:44;;;;;;;1.47;0.80;;;31.70;59.80;;;;;;4942444;28;20290;-79
2022/06/22 09:50:42;;;;;;;1.43;0.80;;;31.70;59.90;;;;;;4928983;29;20217;-79
2022/06/22 09:53:35;;;;;;;1.47;0.80;;;31.80;61.50;;;;;;4956538;28;20668;-80
2022/06/22 09:56:35;;;;;;;1.47;0.80;;;31.90;55.90;;;;;;4935238;28;20770;-78
2022/06/22 09:59:24;;;;;;;1.43;0.80;;;32.00;58.40;;;;;;4955168;28;20426;-79
2022/06/22 10:02:04;;;;;;;1.47;0.80;;;32.10;57.10;;;;;;4945643;28;20272;-78
2022/06/22 10:05:07;;;;;;;1.50;0.80;;;32.20;57.90;;;;;;4953981;28;20221;-79
2022/06/22 10:07:54;;;;;;;1.43;0.80;;;32.50;58.80;;;;;;4904490;28;20313;-78
2022/06/22 10:10:33;;;;;;;1.50;1.10;;;32.30;56.80;;;;;;4930900;29;20234;-79
2022/06/22 10:13:39;;;;;;;1.40;0.90;;;32.10;57.00;;;;;;4950279;28;20221;-78
2022/06/22 10:16:22;;;;;;;1.40;0.80;;;31.80;57.80;;;;;;4942336;28;20227;-79
2022/06/22 10:19:05;;;;;;;1.43;0.80;;;31.90;58.60;;;;;;4961810;28;20262;-78
2022/06/22 10:21:46;;;;;;;1.47;0.80;;;32.10;58.20;;;;;;4940433;28;20234;-79
2022/06/22 10:24:40;;;;;;;1.45;0.80;;;32.40;59.30;;;;;;4956564;28;20304;-79
2022/06/22 10:27:43;;;;;;;1.47;0.80;;;32.60;59.20;;;;;;4949573;28;20289;-79
2022/06/22 10:30:25;;;;;;;1.43;0.80;;;32.60;58.60;;;;;;4949397;28;20214;-78
2022/06/22 10:33:27;;;;;;;1.50;1.20;;;32.80;57.80;;;;;;4945828;28;20244;-79
2022/06/22 10:36:42;;;;;;;1.40;0.80;;;32.90;57.20;;;;;;4944700;28;20286;-79
2022/06/22 10:39:31;;;;;;;1.40;0.80;;;32.50;57.70;;;;;;4956074;28;20217;-80
2022/06/22 10:45:16;;;;;;;1.40;0.80;;;32.60;59.00;;;;;;4953846;28;20205;-79
2022/06/22 10:48:18;;;;;;;1.40;0.80;;;32.90;58.20;;;;;;4948699;28;20237;-79
2022/06/22 10:50:55;;;;;;;1.40;0.80;;;33.10;56.50;;;;;;4951406;28;20213;-80
2022/06/22 10:54:01;;;;;;;2.75;2.55;;;33.30;57.40;;;;;;4949928;28;20219;-79
2022/06/22 10:57:01;;;;;;;1.40;0.80;;;33.40;57.00;;;;;;4946335;28;21033;-78
2022/06/22 10:59:59;;;;;;;1.40;0.80;;;33.50;55.40;;;;;;4932235;28;20822;-78
2022/06/22 11:02:57;;;;;;;1.42;0.80;;;33.60;56.70;;;;;;4952344;28;20439;-79
2022/06/22 11:05:40;;;;;;;1.50;0.90;;;33.70;57.10;;;;;;4949381;28;20282;-78
2022/06/22 11:08:24;;;;;;;1.42;0.80;;;34.00;55.40;;;;;;4951567;28;20394;-79
2022/06/22 11:11:06;;;;;;;1.42;0.80;;;33.90;54.30;;;;;;4948437;29;20232;-79
2022/06/22 11:14:11;;;;;;;1.42;0.80;;;34.10;55.90;;;;;;4950290;28;20285;-78
2022/06/22 11:16:50;;;;;;;1.50;1.00;;;33.90;55.80;;;;;;4943782;28;20291;-77
2022/06/22 11:19:47;;;;;;;1.40;0.80;;;33.80;55.50;;;;;;4957675;28;20207;-78
2022/06/22 11:22:32;;;;;;;1.45;0.80;;;33.70;54.80;;;;;;4946950;28;20234;-78
2022/06/22 11:31:44;;;;;;;1.42;0.80;;;34.10;56.60;;;;;;4928678;29;20234;-79
2022/06/22 11:34:36;;;;;;;1.40;0.80;;;34.20;55.50;;;;;;4936623;29;20421;-80
2022/06/22 11:37:12;;;;;;;1.40;0.80;;;34.10;54.20;;;;;;4932536;28;20350;-78
2022/06/22 11:39:53;;;;;;;1.50;0.90;;;34.00;54.60;;;;;;4929415;29;20214;-79
2022/06/22 11:42:40;;;;;;;1.40;0.80;;;33.90;54.60;;;;;;4931678;28;20226;-79
2022/06/22 11:48:46;;;;;;;1.40;0.80;;;34.10;56.80;;;;;;4930236;29;20222;-79
2022/06/22 11:51:32;;;;;;;1.40;0.80;;;34.20;55.60;;;;;;4931345;29;20619;-79
2022/06/22 11:54:20;;;;;;;1.40;0.80;;;34.30;56.50;;;;;;4933188;29;20200;-80
2022/06/22 11:57:03;;;;;;;1.40;0.80;;;34.60;55.20;;;;;;4925973;29;20300;-79
2022/06/22 11:59:50;;;;;;;1.40;0.80;;;34.30;54.40;;;;;;4936643;29;20231;-79
2022/06/22 12:02:47;;;;;;;1.40;0.80;;;34.30;56.30;;;;;;4930294;29;20251;-79
2022/06/22 12:05:38;;;;;;;1.40;0.80;;;34.00;53.50;;;;;;4939616;29;20207;-79
2022/06/22 12:08:49;;;;;;;1.40;0.80;;;33.60;55.30;;;;;;4956453;28;20230;-79
2022/06/22 12:11:24;;;;;;;1.40;0.80;;;33.30;55.90;;;;;;4946629;29;20321;-80
2022/06/22 12:17:05;;;;;;;1.40;0.80;;;33.80;55.70;;;;;;4943330;28;20452;-79
2022/06/22 12:19:46;;;;;;;1.40;0.80;;;33.40;54.40;;;;;;4941501;29;20210;-76
2022/06/22 12:22:29;;;;;;;1.40;0.80;;;33.10;56.00;;;;;;4928353;28;20238;-78
2022/06/22 12:25:16;;;;;;;1.40;0.80;;;33.40;55.80;;;;;;4941032;23;20259;-78
2022/06/22 12:27:48;;;;;;;1.40;0.80;;;33.50;56.00;;;;;;4927869;28;20277;-76
2022/06/22 12:30:31;;;;;;;1.40;0.80;;;33.70;54.60;;;;;;4932925;29;20219;-78
2022/06/22 12:33:05;;;;;;;1.40;0.80;;;34.10;53.80;;;;;;4931670;29;20314;-77
2022/06/22 12:35:43;;;;;;;1.40;0.80;;;34.40;55.20;;;;;;4932034;29;20712;-78
2022/06/22 12:38:18;;;;;;;1.40;0.80;;;34.60;52.90;;;;;;4926512;29;20218;-78
2022/06/22 12:40:55;;;;;;;1.38;0.80;;;34.70;52.80;;;;;;4933003;29;20203;-77
2022/06/22 12:43:52;;;;;;;1.50;1.00;;;34.50;52.10;;;;;;4901975;29;20232;-78
2022/06/22 12:46:33;;;;;;;1.40;0.90;;;34.50;53.10;;;;;;4908756;28;20250;-76
2022/06/22 12:49:32;;;;;;;2.13;1.35;;;34.80;53.40;;;;;;4937040;29;20223;-78
2022/06/22 12:52:06;;;;;;;1.40;0.80;;;34.90;51.80;;;;;;4923818;29;20645;-77
2022/06/22 12:54:39;;;;;;;1.40;0.80;;;34.80;52.50;;;;;;4925365;29;20210;-77
2022/06/22 12:57:29;;;;;;;1.40;0.80;;;34.80;52.10;;;;;;4915640;28;20231;-78
2022/06/22 13:00:02;;;;;;;1.40;0.80;;;34.80;52.20;;;;;;4927255;29;20303;-78
2022/06/22 13:02:32;;;;;;;1.40;0.80;;;34.90;52.30;;;;;;4920927;28;20243;-77
2022/06/22 13:05:01;;;;;;;1.40;0.80;;;34.90;51.50;;;;;;4913747;29;20674;-80
2022/06/22 13:07:33;;;;;;;1.40;0.90;;;34.90;53.30;;;;;;4918187;29;20330;-77
2022/06/22 13:10:01;;;;;;;1.40;0.80;;;34.90;51.70;;;;;;4912800;29;20212;-76
2022/06/22 13:12:35;;;;;;;1.40;0.80;;;34.70;51.70;;;;;;4906301;29;20228;-78
2022/06/22 13:15:08;;;;;;;1.42;0.88;;;34.60;51.60;;;;;;4905200;29;20225;-77
2022/06/22 13:17:43;;;;;;;1.35;0.80;;;34.50;53.40;;;;;;4910216;29;20706;-77
2022/06/22 13:20:33;;;;;;;1.40;0.80;;;34.30;52.00;;;;;;4911740;29;20204;-77
2022/06/22 13:23:09;;;;;;;1.40;0.80;;;34.10;52.00;;;;;;4916482;29;20704;-78
2022/06/22 13:25:45;;;;;;;1.40;0.80;;;34.10;53.20;;;;;;4916296;29;20258;-80
2022/06/22 13:28:22;;;;;;;1.40;0.80;;;34.20;53.80;;;;;;4915750;29;20672;-78
2022/06/22 13:30:56;;;;;;;1.50;1.08;;;34.30;53.10;;;;;;4906302;29;20211;-77
2022/06/22 13:36:58;;;;;;;1.50;0.90;;;34.30;51.20;;;;;;5085596;23;20614;-77
2022/06/22 13:39:44;;;;;;;1.40;0.80;;;33.90;51.10;;;;;;4960683;28;20624;-79
2022/06/22 13:42:47;;;;;;;1.40;0.80;;;33.90;52.70;;;;;;4951042;29;20202;-77
2022/06/22 13:45:34;;;;;;;1.40;0.80;;;33.90;52.70;;;;;;4943976;28;20239;-78
2022/06/22 13:48:21;;;;;;;1.40;0.80;;;34.10;54.20;;;;;;4921022;28;20246;-79
2022/06/22 13:51:19;;;;;;;1.40;0.80;;;34.30;52.00;;;;;;4911847;29;20290;-79
2022/06/22 13:54:15;;;;;;;1.40;0.80;;;34.10;51.60;;;;;;4932988;29;20219;-76
2022/06/22 13:56:55;;;;;;;1.40;0.80;;;33.80;52.90;;;;;;4914019;28;20246;-78
2022/06/22 13:59:30;;;;;;;1.40;0.80;;;33.60;52.90;;;;;;4933168;29;20216;-78
2022/06/22 14:02:09;;;;;;;1.40;0.80;;;33.60;53.20;;;;;;4924604;28;20222;-79
2022/06/22 14:04:45;;;;;;;1.35;0.80;;;33.60;53.20;;;;;;4933403;29;20207;-76
2022/06/22 14:07:19;;;;;;;1.40;0.80;;;33.60;53.90;;;;;;4932350;29;20309;-78
2022/06/22 14:09:54;;;;;;;1.40;0.90;;;33.50;53.30;;;;;;4937442;29;20211;-79
2022/06/22 14:12:31;;;;;;;1.40;0.80;;;33.40;51.80;;;;;;4922887;29;20256;-78